Time;durP1;ratioP1;P1;durP2;ratioP2;P2;SDS_P1;SDS_P2;PMS_P1;PMS_P2;Temp;Humidity;BMP_temperature;BMP_pressure;BME280_temperature;BME280_humidity;BME280_pressure;Samples;Min_cycle;Max_cycle;Signal;HPM_P1;HPM_P2
2022/01/28 00:04:47;;;;;;;14.57;3.28;;;4.50;99.90;;;;;;5076221;28;20108;-67
2022/01/28 00:07:13;;;;;;;19.75;3.08;;;4.60;99.90;;;;;;5057212;28;20052;-67
2022/01/28 00:09:39;;;;;;;18.05;3.42;;;4.60;99.90;;;;;;5076186;28;20035;-67
2022/01/28 00:12:07;;;;;;;15.35;2.60;;;4.60;99.90;;;;;;5059481;28;20048;-67
2022/01/28 00:15:04;;;;;;;15.38;3.50;;;4.60;99.90;;;;;;5075877;28;20573;-67
2022/01/28 00:38:54;;;;;;;22.23;4.68;;;4.50;99.90;;;;;;5072552;28;20504;-67
2022/01/28 00:41:20;;;;;;;22.48;4.25;;;4.60;99.90;;;;;;5055679;28;20072;-67
2022/01/28 00:43:46;;;;;;;20.67;5.10;;;4.70;99.90;;;;;;5072578;28;20507;-67
2022/01/28 00:46:12;;;;;;;28.02;4.90;;;4.70;99.90;;;;;;5072105;28;20040;-67
2022/01/28 00:48:38;;;;;;;23.90;4.63;;;4.80;99.90;;;;;;5072327;28;20036;-67
2022/01/28 00:51:04;;;;;;;19.73;3.83;;;4.80;99.90;;;;;;5055299;28;20076;-67
2022/01/28 00:53:30;;;;;;;20.58;3.90;;;4.90;99.90;;;;;;5071862;28;20080;-67
2022/01/28 00:55:57;;;;;;;22.02;4.43;;;4.90;99.90;;;;;;5072218;28;20040;-66
2022/01/28 00:58:24;;;;;;;20.38;4.05;;;4.90;99.90;;;;;;5055170;28;20036;-67
2022/01/28 01:00:50;;;;;;;23.02;4.35;;;4.90;99.90;;;;;;5071896;28;20043;-67
2022/01/28 01:03:16;;;;;;;26.05;4.25;;;5.00;99.90;;;;;;5055427;28;20093;-67
2022/01/28 01:05:42;;;;;;;18.33;3.58;;;5.00;99.90;;;;;;5071876;28;20036;-67
2022/01/28 01:08:09;;;;;;;33.88;6.07;;;5.00;99.90;;;;;;5052844;28;20392;-67
2022/01/28 01:10:35;;;;;;;19.02;4.25;;;5.00;99.90;;;;;;5054039;28;20528;-67
2022/01/28 01:13:02;;;;;;;26.85;7.25;;;5.00;99.90;;;;;;5071596;28;20573;-67
2022/01/28 01:15:33;;;;;;;22.13;4.68;;;5.00;99.90;;;;;;5055182;28;20040;-67
2022/01/28 01:25:38;;;;;;;21.02;4.10;;;4.80;99.90;;;;;;5074886;28;20572;-67
2022/01/28 01:28:04;;;;;;;17.95;3.67;;;4.80;99.90;;;;;;5074901;28;20036;-67
2022/01/28 01:30:33;;;;;;;28.80;4.78;;;4.80;99.90;;;;;;5074589;28;20539;-67
2022/01/28 01:32:59;;;;;;;14.43;3.50;;;4.80;99.90;;;;;;5074440;28;20051;-67
2022/01/28 01:35:25;;;;;;;20.17;3.65;;;4.70;99.90;;;;;;5074573;28;20040;-67
2022/01/28 01:37:51;;;;;;;17.30;3.90;;;4.70;99.90;;;;;;5062510;28;20036;-67
2022/01/28 01:40:25;;;;;;;17.88;3.38;;;4.70;99.90;;;;;;5037778;28;20514;-67
2022/01/28 01:43:04;;;;;;;20.02;3.95;;;4.80;99.90;;;;;;5054301;28;20041;-67
2022/01/28 01:53:27;;;;;;;23.75;4.45;;;4.80;99.90;;;;;;5054223;28;20044;-66
2022/01/28 01:55:55;;;;;;;24.15;4.07;;;4.90;99.90;;;;;;5054142;28;20041;-66
2022/01/28 01:58:30;;;;;;;20.65;4.82;;;4.90;99.90;;;;;;5054004;28;20033;-67
2022/01/28 02:01:00;;;;;;;22.25;4.18;;;4.90;99.90;;;;;;5054138;28;20046;-67
2022/01/28 02:03:27;;;;;;;25.75;4.32;;;4.80;99.90;;;;;;5037460;28;20048;-67
2022/01/28 02:05:58;;;;;;;22.30;4.70;;;4.80;99.90;;;;;;5037438;28;20036;-67
2022/01/28 02:08:29;;;;;;;21.83;4.75;;;4.70;99.90;;;;;;5051502;28;20098;-67
2022/01/28 02:10:57;;;;;;;21.48;3.97;;;4.70;99.90;;;;;;5053947;28;20523;-67
2022/01/28 02:13:28;;;;;;;17.00;3.20;;;4.60;99.90;;;;;;5037248;28;20040;-67
2022/01/28 02:15:54;;;;;;;;;;;4.60;99.90;;;;;;5054373;28;20124;-67
2022/01/28 02:18:24;;;;;;;19.05;3.83;;;4.50;99.90;;;;;;5037150;28;19916;-67
2022/01/28 02:20:53;;;;;;;16.67;3.58;;;4.50;99.90;;;;;;5053985;28;20044;-67
2022/01/28 02:23:21;;;;;;;19.08;3.40;;;4.50;99.90;;;;;;5068579;28;20056;-67
2022/01/28 02:25:48;;;;;;;19.52;2.83;;;4.50;99.90;;;;;;5057212;28;20054;-67
2022/01/28 02:28:17;;;;;;;15.60;3.30;;;4.60;99.90;;;;;;5073830;28;20047;-67
2022/01/28 02:30:43;;;;;;;14.52;2.63;;;4.70;99.90;;;;;;5057403;28;20475;-67
2022/01/28 02:33:13;;;;;;;14.90;2.92;;;4.70;99.90;;;;;;5056834;28;20496;-67
2022/01/28 02:35:41;;;;;;;25.13;3.30;;;4.80;99.90;;;;;;5073968;28;20388;-67
2022/01/28 02:38:12;;;;;;;17.58;2.92;;;4.90;99.90;;;;;;5042806;28;20123;-67
2022/01/28 02:40:41;;;;;;;19.98;4.43;;;4.90;99.90;;;;;;5037147;28;20127;-67
2022/01/28 02:45:43;;;;;;;18.30;3.33;;;5.00;99.90;;;;;;5053800;28;20045;-67
2022/01/28 02:48:23;;;;;;;18.20;2.78;;;5.00;99.90;;;;;;5053819;28;20041;-67
2022/01/28 02:53:37;;;;;;;31.08;4.85;;;5.10;99.90;;;;;;5053390;28;19920;-67
2022/01/28 02:56:11;;;;;;;19.90;2.60;;;5.20;99.90;;;;;;5053836;28;20125;-67
2022/01/28 02:58:37;;;;;;;16.45;3.42;;;5.20;99.90;;;;;;5053443;28;20496;-67
2022/01/28 03:01:04;;;;;;;17.42;3.75;;;5.20;99.90;;;;;;5053541;28;20066;-67
2022/01/28 03:03:30;;;;;;;16.45;4.40;;;5.10;99.90;;;;;;5036828;28;20045;-67
2022/01/28 03:05:56;;;;;;;12.65;3.15;;;5.10;99.90;;;;;;5053680;28;20102;-67
2022/01/28 03:08:28;;;;;;;16.35;2.72;;;5.00;99.90;;;;;;5034614;28;20530;-67
2022/01/28 03:16:32;;;;;;;14.73;2.55;;;4.90;99.90;;;;;;5053572;28;20044;-67
2022/01/28 03:19:12;;;;;;;11.57;2.45;;;4.80;99.90;;;;;;5053195;28;20044;-67
2022/01/28 03:21:42;;;;;;;15.93;3.53;;;4.90;99.90;;;;;;5054582;28;20131;-66
2022/01/28 03:24:09;;;;;;;20.45;2.63;;;4.80;99.90;;;;;;5073295;28;20044;-67
2022/01/28 03:26:36;;;;;;;16.55;3.03;;;4.80;99.90;;;;;;5073543;28;20051;-67
2022/01/28 03:29:02;;;;;;;17.30;4.53;;;4.80;99.90;;;;;;5073349;28;20047;-67
2022/01/28 03:31:28;;;;;;;15.68;3.15;;;4.80;99.90;;;;;;5073193;28;20046;-67
2022/01/28 03:33:54;;;;;;;15.05;2.90;;;4.90;99.90;;;;;;5056738;28;20035;-67
2022/01/28 03:36:20;;;;;;;27.00;4.13;;;4.90;99.90;;;;;;5059388;28;20511;-67
2022/01/28 03:38:48;;;;;;;11.27;2.55;;;4.90;99.90;;;;;;5041189;28;20032;-67
2022/01/28 03:41:17;;;;;;;21.75;3.60;;;4.90;99.90;;;;;;5056930;28;20040;-67
2022/01/28 03:43:47;;;;;;;20.80;5.50;;;4.90;99.90;;;;;;5056832;28;20506;-67
2022/01/28 03:46:14;;;;;;;17.98;3.15;;;4.90;99.90;;;;;;5039944;28;20050;-67
2022/01/28 03:48:41;;;;;;;21.80;3.80;;;4.90;99.90;;;;;;5039815;28;20101;-67
2022/01/28 03:51:07;;;;;;;14.10;3.28;;;4.90;99.90;;;;;;5039833;28;20044;-67
2022/01/28 03:53:33;;;;;;;18.25;3.97;;;4.80;99.90;;;;;;5056440;28;20559;-67
2022/01/28 03:55:59;;;;;;;17.25;3.42;;;4.80;99.90;;;;;;5039748;28;20032;-67
2022/01/28 03:58:26;;;;;;;24.10;5.55;;;4.90;99.90;;;;;;5039654;28;20036;-67
2022/01/28 04:00:53;;;;;;;18.00;3.80;;;5.00;99.90;;;;;;5039982;28;20447;-67
2022/01/28 04:13:48;;;;;;;20.15;3.90;;;5.10;99.90;;;;;;5055815;28;20500;-67
2022/01/28 04:18:47;;;;;;;21.55;4.00;;;5.00;99.90;;;;;;5056133;28;20500;-67
2022/01/28 04:21:13;;;;;;;22.42;4.20;;;5.00;99.90;;;;;;5039599;28;20123;-67
2022/01/28 04:23:39;;;;;;;16.85;3.65;;;4.90;99.90;;;;;;5073780;28;20060;-67
2022/01/28 04:26:05;;;;;;;21.98;4.85;;;4.90;99.90;;;;;;5075796;28;20132;-67
2022/01/28 04:28:31;;;;;;;32.22;5.70;;;4.80;99.90;;;;;;5076024;28;20052;-67
2022/01/28 04:30:57;;;;;;;21.35;4.65;;;4.70;99.90;;;;;;5075614;28;20518;-67
2022/01/28 04:33:23;;;;;;;17.42;4.30;;;4.70;99.90;;;;;;5075669;28;20497;-67
2022/01/28 04:35:52;;;;;;;20.88;4.35;;;4.70;99.90;;;;;;5075630;28;20481;-67
2022/01/28 04:41:09;;;;;;;21.05;3.67;;;4.60;99.90;;;;;;5075478;28;20093;-67
2022/01/28 04:43:50;;;;;;;18.05;4.65;;;4.60;99.90;;;;;;5075508;28;20051;-67
2022/01/28 04:49:02;;;;;;;13.48;3.42;;;4.50;99.90;;;;;;5075684;28;20055;-67
2022/01/28 05:25:46;;;;;;;22.73;3.63;;;4.80;99.90;;;;;;5074877;28;20101;-67
2022/01/28 05:28:06;;;;;;;21.70;4.95;;;4.80;99.90;;;;;;5075038;28;20090;-67
2022/01/28 05:30:32;;;;;;;25.27;4.05;;;4.90;99.90;;;;;;5058748;28;20497;-67
2022/01/28 05:32:58;;;;;;;23.55;4.13;;;4.90;99.90;;;;;;5058977;28;20072;-67
2022/01/28 05:35:26;;;;;;;22.02;3.75;;;4.80;99.90;;;;;;5075791;28;20476;-67
2022/01/28 05:37:51;;;;;;;29.10;5.78;;;4.70;99.90;;;;;;5073034;28;20115;-67
2022/01/28 05:40:17;;;;;;;17.38;3.17;;;4.70;99.90;;;;;;5075657;28;20118;-67
2022/01/28 05:42:43;;;;;;;21.00;3.58;;;4.70;99.90;;;;;;5075593;28;20039;-67
2022/01/28 05:45:09;;;;;;;23.25;6.40;;;4.60;99.90;;;;;;5075047;28;20395;-67
2022/01/28 05:47:36;;;;;;;32.55;4.68;;;4.60;99.90;;;;;;5058626;28;20040;-67
2022/01/28 05:50:04;;;;;;;32.30;4.43;;;4.60;99.90;;;;;;5075359;28;20076;-66
2022/01/28 05:52:31;;;;;;;23.20;4.18;;;4.40;99.90;;;;;;5075127;28;20044;-67
2022/01/28 05:54:57;;;;;;;23.05;3.83;;;4.40;99.90;;;;;;5075412;28;20036;-67
2022/01/28 05:57:23;;;;;;;27.42;7.13;;;4.30;99.90;;;;;;5074876;28;20040;-67
2022/01/28 05:59:49;;;;;;;29.10;5.00;;;4.20;99.90;;;;;;5075010;28;20032;-67
2022/01/28 06:02:16;;;;;;;22.90;4.65;;;4.10;99.90;;;;;;5058688;28;20048;-67
2022/01/28 06:04:43;;;;;;;22.98;5.38;;;4.10;99.90;;;;;;5058779;28;20366;-67
2022/01/28 06:07:09;;;;;;;21.15;4.10;;;4.00;99.90;;;;;;5056070;28;20040;-67
2022/01/28 06:09:35;;;;;;;18.52;3.90;;;4.00;99.90;;;;;;5075001;28;20039;-67
2022/01/28 06:12:00;;;;;;;22.48;4.20;;;3.90;99.90;;;;;;5074808;28;20097;-67
2022/01/28 06:14:26;;;;;;;20.95;5.15;;;3.80;99.90;;;;;;5058501;28;20122;-67
2022/01/28 06:16:52;;;;;;;21.73;4.25;;;3.70;99.90;;;;;;5074887;28;20044;-67
2022/01/28 06:19:18;;;;;;;26.42;4.80;;;3.70;99.90;;;;;;5074907;28;20051;-67
2022/01/28 06:21:43;;;;;;;25.75;4.50;;;3.70;99.90;;;;;;5074569;28;20044;-67
2022/01/28 06:24:09;;;;;;;26.92;4.75;;;3.70;99.90;;;;;;5058165;28;20074;-67
2022/01/28 06:26:35;;;;;;;25.35;3.78;;;3.60;99.90;;;;;;5074678;28;20044;-67
2022/01/28 06:29:01;;;;;;;23.00;3.60;;;3.60;99.90;;;;;;5074930;28;20029;-68
2022/01/28 06:31:27;;;;;;;22.63;4.43;;;3.60;99.90;;;;;;5074954;28;20490;-67
2022/01/28 06:33:52;;;;;;;25.80;4.18;;;3.50;99.90;;;;;;5074680;28;20496;-67
2022/01/28 06:36:21;;;;;;;22.77;4.95;;;3.40;99.90;;;;;;5057990;28;20047;-68
2022/01/28 06:38:47;;;;;;;22.88;5.60;;;3.40;99.90;;;;;;5055431;28;20432;-67
2022/01/28 06:41:13;;;;;;;24.73;4.00;;;3.40;99.90;;;;;;5054504;28;20072;-67
2022/01/28 06:43:39;;;;;;;19.98;4.03;;;3.30;99.90;;;;;;5037927;28;20079;-67
2022/01/28 06:46:05;;;;;;;18.40;3.47;;;3.30;99.90;;;;;;5037883;28;20045;-68
2022/01/28 06:48:32;;;;;;;21.65;4.28;;;3.30;99.90;;;;;;5053735;28;20051;-68
2022/01/28 06:50:59;;;;;;;16.58;3.20;;;3.20;99.90;;;;;;5053551;28;20174;-68
2022/01/28 06:53:24;;;;;;;21.38;3.95;;;3.10;99.90;;;;;;5037163;28;20528;-68
2022/01/28 06:55:50;;;;;;;19.83;3.88;;;3.10;99.90;;;;;;5053460;28;20123;-68
2022/01/28 06:58:16;;;;;;;22.25;3.72;;;3.10;99.90;;;;;;5053453;28;20036;-68
2022/01/28 07:00:42;;;;;;;20.55;3.05;;;3.10;99.90;;;;;;5053731;28;20067;-67
2022/01/28 07:03:10;;;;;;;23.50;3.63;;;3.10;99.90;;;;;;5036941;28;20131;-67
2022/01/28 07:05:36;;;;;;;17.10;5.30;;;3.10;99.90;;;;;;5053410;28;20500;-68
2022/01/28 07:08:03;;;;;;;19.73;3.40;;;3.00;99.90;;;;;;5038088;28;20044;-67
2022/01/28 07:10:29;;;;;;;20.40;3.90;;;3.00;99.90;;;;;;5073991;28;20044;-67
2022/01/28 07:12:55;;;;;;;20.58;4.68;;;2.90;99.90;;;;;;5073456;28;20048;-67
2022/01/28 07:15:25;;;;;;;17.67;3.35;;;2.70;99.90;;;;;;5074914;28;20036;-67
2022/01/28 07:18:01;;;;;;;14.90;3.88;;;2.60;99.90;;;;;;5074533;28;20044;-68
2022/01/28 07:20:29;;;;;;;18.95;4.40;;;2.40;99.90;;;;;;5057908;28;20040;-67
2022/01/28 07:22:55;;;;;;;16.25;3.67;;;2.30;99.90;;;;;;5086587;28;20060;-67
2022/01/28 07:25:21;;;;;;;17.42;4.47;;;2.20;99.90;;;;;;5094650;28;20071;-67
2022/01/28 07:27:46;;;;;;;37.90;7.60;;;2.10;99.90;;;;;;5093935;28;20467;-67
2022/01/28 07:30:15;;;;;;;23.40;5.03;;;2.00;99.90;;;;;;5094217;28;20044;-67
2022/01/28 07:32:42;;;;;;;19.90;4.65;;;2.00;99.90;;;;;;5076952;28;20094;-66
2022/01/28 07:35:09;;;;;;;17.95;4.45;;;1.90;99.90;;;;;;5094077;28;20046;-66
2022/01/28 07:37:35;;;;;;;23.38;5.30;;;1.90;99.90;;;;;;5087528;28;20459;-67
2022/01/28 07:40:04;;;;;;;24.42;4.72;;;1.80;99.90;;;;;;5076795;28;20503;-66
2022/01/28 07:42:34;;;;;;;19.42;3.75;;;1.70;99.90;;;;;;5090801;28;20052;-67
2022/01/28 07:45:00;;;;;;;14.98;3.20;;;1.70;99.90;;;;;;5094817;28;20047;-67
2022/01/28 07:47:26;;;;;;;14.57;3.90;;;1.50;99.90;;;;;;5094730;28;20403;-67
2022/01/28 07:49:52;;;;;;;15.13;3.42;;;1.50;99.90;;;;;;5077414;28;20036;-67
2022/01/28 07:52:18;;;;;;;19.77;4.57;;;1.40;99.90;;;;;;5077525;28;20036;-66
2022/01/28 07:54:48;;;;;;;12.35;2.67;;;1.40;99.90;;;;;;5094270;28;20555;-66
2022/01/28 07:57:14;;;;;;;17.73;3.10;;;1.30;99.90;;;;;;5094300;28;20036;-67
2022/01/28 07:59:40;;;;;;;15.30;2.88;;;1.30;99.90;;;;;;5076801;28;20036;-67
2022/01/28 08:02:06;;;;;;;14.93;3.25;;;1.20;99.90;;;;;;5077523;28;20052;-67
2022/01/28 08:04:31;;;;;;;17.33;3.83;;;1.20;99.90;;;;;;5077254;28;20683;-67
2022/01/28 08:06:57;;;;;;;11.82;3.00;;;1.30;99.90;;;;;;5074889;28;20040;-66
2022/01/28 08:09:24;;;;;;;19.13;3.92;;;1.40;99.90;;;;;;5078773;28;20035;-67
2022/01/28 08:11:50;;;;;;;13.48;3.03;;;1.50;99.90;;;;;;5093095;28;20500;-66
2022/01/28 08:14:16;;;;;;;25.58;4.38;;;1.60;99.90;;;;;;5054214;28;20050;-67
2022/01/28 08:16:42;;;;;;;14.30;3.78;;;1.80;99.90;;;;;;5076064;28;20090;-66
2022/01/28 08:19:08;;;;;;;18.27;3.55;;;1.90;99.90;;;;;;5075768;28;20101;-67
2022/01/28 08:21:34;;;;;;;19.02;4.45;;;2.10;99.90;;;;;;5057606;28;20093;-66
2022/01/28 08:24:00;;;;;;;16.15;3.42;;;2.30;99.90;;;;;;5039365;28;20044;-67
2022/01/28 08:26:25;;;;;;;19.05;4.45;;;2.50;99.90;;;;;;5055812;28;20466;-67
2022/01/28 08:28:51;;;;;;;24.02;5.15;;;2.80;99.90;;;;;;5055627;28;20033;-67
2022/01/28 08:31:17;;;;;;;28.08;5.18;;;3.10;99.90;;;;;;5039025;28;20094;-67
2022/01/28 08:33:43;;;;;;;20.83;4.28;;;3.30;99.90;;;;;;5038964;28;20036;-67
2022/01/28 08:36:09;;;;;;;25.80;4.50;;;3.40;99.90;;;;;;5039408;28;20036;-66
2022/01/28 08:38:38;;;;;;;27.35;4.85;;;3.40;99.90;;;;;;5037339;28;20037;-67
2022/01/28 08:41:04;;;;;;;21.15;4.22;;;3.50;99.90;;;;;;5056399;28;20040;-67
2022/01/28 08:43:32;;;;;;;18.73;4.03;;;3.60;99.90;;;;;;5056520;28;20056;-67
2022/01/28 08:45:58;;;;;;;17.40;3.75;;;3.90;99.90;;;;;;5056387;28;20055;-67
2022/01/28 08:48:24;;;;;;;24.83;4.43;;;4.30;99.90;;;;;;5059269;28;20048;-67
2022/01/28 08:50:50;;;;;;;16.88;4.47;;;4.60;99.90;;;;;;5056367;28;20051;-67
2022/01/28 08:53:16;;;;;;;17.67;3.70;;;5.00;99.90;;;;;;5056065;28;20400;-67
2022/01/28 08:55:41;;;;;;;19.25;3.78;;;5.10;99.90;;;;;;5056045;28;20388;-67
2022/01/28 08:58:09;;;;;;;21.15;4.32;;;5.20;99.90;;;;;;5072542;28;20048;-67
2022/01/28 09:00:35;;;;;;;24.05;4.38;;;5.10;99.90;;;;;;5072920;28;20040;-67
2022/01/28 09:03:01;;;;;;;22.50;4.85;;;5.10;99.90;;;;;;5072845;28;20518;-67
2022/01/28 09:05:28;;;;;;;16.05;3.42;;;5.20;99.90;;;;;;5055880;28;20183;-66
2022/01/28 09:07:55;;;;;;;17.65;4.30;;;5.50;99.90;;;;;;5063011;28;20130;-67
2022/01/28 09:10:25;;;;;;;14.63;3.90;;;5.60;99.90;;;;;;5055862;28;20048;-67
2022/01/28 09:15:22;;;;;;;23.42;5.65;;;5.70;99.90;;;;;;5055973;28;20137;-66
2022/01/28 09:17:48;;;;;;;28.42;7.65;;;5.80;99.90;;;;;;5055762;28;20469;-67
2022/01/28 09:20:14;;;;;;;33.25;8.43;;;5.90;99.90;;;;;;5055500;28;20603;-66
2022/01/28 09:22:40;;;;;;;23.30;7.82;;;6.20;99.90;;;;;;5038833;28;20136;-66
2022/01/28 09:25:06;;;;;;;35.38;9.80;;;6.60;99.90;;;;;;5055546;28;20059;-67
2022/01/28 09:27:32;;;;;;;25.17;7.93;;;7.30;99.90;;;;;;5055728;28;20036;-66
2022/01/28 09:29:58;;;;;;;26.05;6.82;;;7.80;99.90;;;;;;5038814;28;20052;-66
2022/01/28 09:32:24;;;;;;;18.38;5.97;;;7.70;99.90;;;;;;5054594;28;20040;-66
2022/01/28 09:34:50;;;;;;;24.08;6.28;;;7.40;99.90;;;;;;5070694;28;20040;-66
2022/01/28 09:37:15;;;;;;;16.77;4.53;;;7.00;99.90;;;;;;5068126;28;20111;-66
2022/01/28 09:39:44;;;;;;;23.92;4.60;;;6.70;99.90;;;;;;5038491;28;20032;-66
2022/01/28 09:42:19;;;;;;;23.35;5.03;;;6.50;99.90;;;;;;5055445;28;20036;-66
2022/01/28 09:44:48;;;;;;;21.08;4.38;;;6.40;99.90;;;;;;5072880;28;20040;-66
2022/01/28 09:47:15;;;;;;;19.50;3.95;;;6.20;99.90;;;;;;5038334;28;20496;-66
2022/01/28 09:49:41;;;;;;;23.10;4.70;;;6.10;99.90;;;;;;5055006;28;20123;-66
2022/01/28 09:52:09;;;;;;;20.00;4.45;;;6.00;99.90;;;;;;5055351;28;20046;-66
2022/01/28 09:54:36;;;;;;;26.75;4.45;;;5.90;99.90;;;;;;5055024;28;20099;-66
2022/01/28 09:57:09;;;;;;;18.17;4.00;;;5.90;99.90;;;;;;5055252;28;20431;-66
2022/01/28 09:59:37;;;;;;;19.95;4.07;;;5.80;99.90;;;;;;5058513;28;20067;-66
2022/01/28 10:02:03;;;;;;;16.60;3.72;;;5.80;99.90;;;;;;5054384;28;20032;-66
2022/01/28 10:04:29;;;;;;;23.13;5.75;;;5.80;99.90;;;;;;5071431;28;20039;-66
2022/01/28 10:06:56;;;;;;;24.98;5.65;;;5.90;99.90;;;;;;5047926;28;20148;-66
2022/01/28 10:09:23;;;;;;;14.63;3.63;;;6.00;99.90;;;;;;5054930;28;20115;-66
2022/01/28 10:11:53;;;;;;;15.52;3.70;;;6.00;99.90;;;;;;5038399;28;20072;-66
2022/01/28 10:14:23;;;;;;;14.77;3.08;;;6.10;99.90;;;;;;5054858;28;20048;-66
2022/01/28 10:17:01;;;;;;;20.33;3.57;;;6.20;99.90;;;;;;5054709;28;20037;-66
2022/01/28 10:19:37;;;;;;;16.38;3.67;;;6.20;99.90;;;;;;5054690;28;20106;-66
2022/01/28 10:22:15;;;;;;;17.92;3.42;;;6.20;99.90;;;;;;5054366;28;20048;-66
2022/01/28 10:24:41;;;;;;;14.90;3.53;;;6.20;99.90;;;;;;5037895;28;20048;-66
2022/01/28 10:27:09;;;;;;;15.07;3.47;;;6.20;99.90;;;;;;5054600;28;20171;-66
2022/01/28 10:29:43;;;;;;;15.50;3.85;;;6.20;99.90;;;;;;5037831;28;20040;-66
2022/01/28 10:32:15;;;;;;;24.70;4.05;;;6.20;99.90;;;;;;5037834;28;20586;-66
2022/01/28 10:34:46;;;;;;;20.33;4.35;;;6.30;99.90;;;;;;5054622;28;20174;-66
2022/01/28 10:37:23;;;;;;;20.25;3.70;;;6.40;99.90;;;;;;5052785;28;20036;-66
2022/01/28 10:39:53;;;;;;;18.58;4.15;;;6.50;99.90;;;;;;5054474;28;20044;-66
2022/01/28 10:42:33;;;;;;;19.13;3.42;;;6.60;99.90;;;;;;5054276;28;20045;-66
2022/01/28 10:45:13;;;;;;;19.42;3.78;;;6.70;99.90;;;;;;5058734;28;20090;-66
2022/01/28 10:47:40;;;;;;;17.88;3.42;;;6.90;99.90;;;;;;5058816;28;20396;-66
2022/01/28 10:50:31;;;;;;;18.05;3.75;;;7.00;99.90;;;;;;5058606;28;20045;-66
2022/01/28 10:53:12;;;;;;;15.45;3.38;;;7.10;99.90;;;;;;5041985;28;20033;-66
2022/01/28 10:55:45;;;;;;;;;;;7.50;99.90;;;;;;5058821;28;20040;-66
2022/01/28 10:58:15;;;;;;;21.05;4.20;;;7.90;99.90;;;;;;5041701;28;19920;-66
2022/01/28 11:00:44;;;;;;;15.50;3.63;;;8.50;99.90;;;;;;5066615;28;20064;-66
2022/01/28 11:03:12;;;;;;;26.50;5.95;;;8.60;99.90;;;;;;5075278;28;20044;-66
2022/01/28 11:05:39;;;;;;;18.60;4.38;;;8.40;99.90;;;;;;5074784;28;20121;-66
2022/01/28 11:08:11;;;;;;;19.23;4.03;;;8.30;99.90;;;;;;5063609;28;20049;-66
2022/01/28 11:10:40;;;;;;;22.63;4.78;;;8.30;99.90;;;;;;5057959;28;20040;-66
2022/01/28 11:13:06;;;;;;;16.38;3.50;;;8.80;99.90;;;;;;5058036;28;20044;-66
2022/01/28 11:15:33;;;;;;;28.40;9.63;;;8.90;99.90;;;;;;5041715;28;20358;-66
2022/01/28 11:18:01;;;;;;;22.33;8.73;;;8.80;99.90;;;;;;5057786;28;20040;-66
2022/01/28 11:20:43;;;;;;;16.15;3.28;;;8.60;99.90;;;;;;5058227;28;20079;-66
2022/01/28 11:23:39;;;;;;;18.80;5.10;;;8.50;99.90;;;;;;5057747;28;20096;-66
2022/01/28 11:26:27;;;;;;;23.75;3.63;;;8.40;99.90;;;;;;5057194;28;20052;-66
2022/01/28 11:28:57;;;;;;;19.40;3.60;;;8.40;99.90;;;;;;5041236;28;20045;-66
2022/01/28 11:31:41;;;;;;;20.65;4.07;;;8.50;99.90;;;;;;5041061;28;20048;-66
2022/01/28 11:34:34;;;;;;;28.08;4.97;;;8.60;99.90;;;;;;5057561;28;20408;-67
2022/01/28 11:37:03;;;;;;;17.25;4.35;;;8.70;99.90;;;;;;5052150;28;20066;-66
2022/01/28 11:39:32;;;;;;;25.20;3.58;;;8.60;99.90;;;;;;5057573;28;20129;-66
2022/01/28 11:42:11;;;;;;;15.33;3.47;;;8.50;99.90;;;;;;5057361;28;20045;-68
2022/01/28 11:44:59;;;;;;;20.88;5.22;;;8.50;99.90;;;;;;5057923;28;20437;-67
2022/01/28 11:47:37;;;;;;;21.20;3.75;;;8.50;99.90;;;;;;5041264;28;20456;-67
2022/01/28 11:50:14;;;;;;;23.70;4.10;;;8.50;99.90;;;;;;5057365;28;20036;-67
2022/01/28 11:52:46;;;;;;;17.80;4.78;;;8.70;99.90;;;;;;5057336;28;20048;-67
2022/01/28 11:55:20;;;;;;;17.38;3.97;;;9.00;99.90;;;;;;5039932;28;20036;-67
2022/01/28 11:58:10;;;;;;;15.60;3.25;;;9.30;99.90;;;;;;5040723;28;20534;-67
2022/01/28 12:00:41;;;;;;;16.15;3.55;;;9.70;99.90;;;;;;5057193;28;20123;-67
2022/01/28 12:03:25;;;;;;;19.13;3.70;;;10.50;99.90;;;;;;5040979;28;20071;-67
2022/01/28 12:05:56;;;;;;;17.48;3.83;;;11.20;99.90;;;;;;5057122;28;20519;-67
2022/01/28 12:08:28;;;;;;;15.00;3.13;;;11.40;99.90;;;;;;5054678;28;20044;-68
2022/01/28 12:10:56;;;;;;;26.00;5.13;;;11.50;99.90;;;;;;5040417;28;20037;-68
2022/01/28 12:13:49;;;;;;;26.63;4.57;;;11.60;99.90;;;;;;5056842;28;20056;-68
2022/01/28 12:16:40;;;;;;;14.63;3.25;;;11.50;99.90;;;;;;5057064;28;20048;-68
2022/01/28 12:19:17;;;;;;;24.08;3.90;;;11.70;99.90;;;;;;5056738;28;20124;-68
2022/01/28 12:22:08;;;;;;;19.08;3.78;;;11.80;99.90;;;;;;5056532;28;20038;-68
2022/01/28 12:24:37;;;;;;;20.25;4.50;;;11.50;99.90;;;;;;5040504;28;20051;-68
2022/01/28 12:27:09;;;;;;;23.30;4.68;;;11.60;99.90;;;;;;5056883;28;20041;-67
2022/01/28 12:29:57;;;;;;;17.75;4.15;;;11.70;99.90;;;;;;5056720;28;20056;-68
2022/01/28 12:32:24;;;;;;;17.35;3.83;;;11.50;99.90;;;;;;5056523;28;20588;-67
2022/01/28 12:34:50;;;;;;;22.70;4.80;;;11.50;99.90;;;;;;5056671;28;20128;-67
2022/01/28 12:37:21;;;;;;;12.07;3.17;;;11.60;99.90;;;;;;5037058;28;20047;-67
2022/01/28 12:40:02;;;;;;;13.50;3.35;;;11.90;99.90;;;;;;5073583;28;20029;-67
2022/01/28 12:42:32;;;;;;;8.98;3.15;;;11.90;99.80;;;;;;5072886;28;20044;-67
2022/01/28 12:45:00;;;;;;;16.65;3.40;;;12.00;99.10;;;;;;5073058;28;20046;-67
2022/01/28 12:47:32;;;;;;;19.35;3.50;;;12.10;99.30;;;;;;5073039;28;20421;-67
2022/01/28 12:50:03;;;;;;;17.23;3.70;;;12.10;98.00;;;;;;5073095;28;20041;-66
2022/01/28 12:52:36;;;;;;;18.83;4.53;;;12.20;98.40;;;;;;5072863;28;20040;-67
2022/01/28 12:55:03;;;;;;;12.97;2.80;;;11.80;96.90;;;;;;5073041;28;20392;-67
2022/01/28 12:57:29;;;;;;;21.95;3.45;;;11.10;96.20;;;;;;5072842;28;20044;-67
2022/01/28 12:59:55;;;;;;;17.67;3.22;;;10.50;97.10;;;;;;5073107;28;20048;-67
2022/01/28 13:02:21;;;;;;;13.02;2.85;;;10.10;97.80;;;;;;5056153;28;20106;-67
2022/01/28 13:09:57;;;;;;;12.63;3.25;;;9.30;99.90;;;;;;5056101;28;20446;-66
2022/01/28 13:12:23;;;;;;;;;;;9.20;99.90;;;;;;5039435;28;20047;-66
2022/01/28 13:14:49;;;;;;;13.90;3.08;;;9.10;99.90;;;;;;5039233;28;19916;-66
2022/01/28 13:17:23;;;;;;;13.68;2.88;;;9.00;99.90;;;;;;5055661;28;20051;-66
2022/01/28 13:20:00;;;;;;;18.08;3.35;;;9.00;99.90;;;;;;5055977;28;20040;-66
2022/01/28 13:22:31;;;;;;;14.07;3.22;;;8.90;99.90;;;;;;5063222;28;20117;-67
2022/01/28 13:24:58;;;;;;;17.90;3.03;;;8.90;99.90;;;;;;5075569;28;20048;-67
2022/01/28 13:27:43;;;;;;;12.68;3.72;;;8.90;99.90;;;;;;5075611;28;20056;-67
2022/01/28 13:30:16;;;;;;;28.95;9.07;;;8.90;99.90;;;;;;5065346;28;20123;-66
2022/01/28 13:32:45;;;;;;;18.80;5.78;;;8.90;99.90;;;;;;5055586;28;20052;-66
2022/01/28 13:35:14;;;;;;;28.13;10.07;;;8.80;99.90;;;;;;5055693;28;20441;-67
2022/01/28 13:37:46;;;;;;;29.42;11.75;;;8.80;99.90;;;;;;5053242;28;20033;-66
2022/01/28 13:40:18;;;;;;;20.50;7.07;;;8.70;99.90;;;;;;5055433;28;20048;-67
2022/01/28 13:42:59;;;;;;;30.73;14.23;;;8.70;99.90;;;;;;5055157;28;20536;-67
2022/01/28 13:45:30;;;;;;;14.02;3.35;;;8.70;99.90;;;;;;5055628;28;20066;-66
2022/01/28 13:47:57;;;;;;;11.90;4.28;;;8.70;99.90;;;;;;5055061;28;20044;-66
2022/01/28 13:50:31;;;;;;;12.13;2.97;;;8.60;99.90;;;;;;5055566;28;20127;-66
2022/01/28 13:56:11;;;;;;;16.60;2.95;;;8.70;99.90;;;;;;5055464;28;20082;-67
2022/01/28 13:58:47;;;;;;;15.00;2.83;;;8.80;99.90;;;;;;5038455;28;20050;-66
2022/01/28 14:01:13;;;;;;;13.73;4.43;;;8.70;99.90;;;;;;5055401;28;20041;-66
2022/01/28 14:03:52;;;;;;;13.93;5.13;;;8.60;99.90;;;;;;5038468;28;20048;-66
2022/01/28 14:06:24;;;;;;;22.88;5.55;;;8.50;99.90;;;;;;5055329;28;20036;-66
2022/01/28 14:08:54;;;;;;;12.38;3.15;;;8.50;99.90;;;;;;5036089;28;20041;-66
2022/01/28 14:11:34;;;;;;;16.50;2.63;;;8.50;99.90;;;;;;5055007;28;20044;-66
2022/01/28 14:14:26;;;;;;;14.50;2.72;;;8.40;99.90;;;;;;5054791;28;20131;-66
2022/01/28 14:17:08;;;;;;;14.63;2.25;;;8.40;99.90;;;;;;5055233;28;20346;-66
2022/01/28 14:19:39;;;;;;;12.82;2.30;;;8.40;99.90;;;;;;5054883;28;20067;-66
2022/01/28 14:22:08;;;;;;;19.15;2.60;;;8.40;99.90;;;;;;5057711;28;20056;-66
2022/01/28 14:24:39;;;;;;;12.88;2.47;;;8.40;99.90;;;;;;5074854;28;20044;-66
2022/01/28 14:32:14;;;;;;;7.75;2.13;;;8.20;99.90;;;;;;5074923;28;20127;-66
2022/01/28 14:34:42;;;;;;;11.82;2.40;;;8.10;99.90;;;;;;5074851;28;20036;-66
2022/01/28 14:37:08;;;;;;;13.77;2.20;;;8.10;99.90;;;;;;5072580;28;20459;-66
2022/01/28 14:39:36;;;;;;;16.90;2.65;;;8.10;99.90;;;;;;5074856;28;20100;-66
2022/01/28 14:42:04;;;;;;;15.73;3.13;;;8.00;99.90;;;;;;5074951;28;20035;-66
2022/01/28 14:44:32;;;;;;;14.27;2.60;;;8.00;99.90;;;;;;5057922;28;20036;-66
2022/01/28 14:46:58;;;;;;;18.50;2.33;;;7.90;99.90;;;;;;5074604;28;20043;-66
2022/01/28 14:49:24;;;;;;;14.60;2.65;;;7.90;99.90;;;;;;5074633;28;20047;-66
2022/01/28 14:51:54;;;;;;;11.20;2.13;;;7.90;99.90;;;;;;5074877;28;20039;-66
2022/01/28 14:54:22;;;;;;;10.30;2.20;;;7.90;99.90;;;;;;5074528;28;20090;-66
2022/01/28 14:56:48;;;;;;;14.40;1.92;;;7.80;99.90;;;;;;5057821;28;20043;-66
2022/01/28 14:59:14;;;;;;;10.68;2.35;;;7.80;99.90;;;;;;5074580;28;20028;-66